Thunder radar more information blitzortung!


Radar de pluja more information rain snow radar


Visita la nostra xarxa de llocs de meteo:

Template documentation
and downloads

And another site



Wind From: 11-12-2017 11:00 Until: 14:59 warning for: Wind Level: Yellow info button

Pagina Historial Weather Underground text

Diari Resum Juny 20, 2017 Unitats:  Imperial    Mètric   Tant
« Previous Dia
SegĂźent Dia »
Diari Setmana Mensual Anual Personalitzada
  Maxima: Minima: Media:
Temperatura: 91 °F 68.4 °F 81.5 °F
Punt de rosada: 67.8 °F 54.1 °F 59.9 °F
Humitat: 82 % 34 % 50 %
Wind Speed: 15 mph 0 mph 5.7 mph
RĂ fegues de vent: 15 mph - -
Vent:- - SW
Pression baro: 30.1 in 29.9 in -
Precipitacions: 0 in    
Historical Graphs
 
 
Dades de taula per Juny 20, 2017
Temps Temperatura Punt de rosada Pression baro Vent Wind Speed RĂ fegues de vent Humitat Rainfall Rate (Hourly)
00:00 69.6 °F 63.9 °F 30 in SW 1 mph 2 mph 82 % 0 in
00:04 74.1 °F 63.7 °F 30.1 in SW 2.3 mph 2.3 mph 70 % 0 in
00:10 69.4 °F 63.7 °F 30 in SW 1 mph 2 mph 82 % 0 in
00:20 69.3 °F 63.5 °F 30 in WSW 1 mph 2 mph 82 % 0 in
00:30 69.1 °F 63.3 °F 30 in Calm   2 mph 82 % 0 in
00:40 68.9 °F 63.1 °F 30 in WSW 1 mph 1 mph 82 % 0 in
00:50 68.7 °F 63 °F 30 in Calm   1 mph 82 % 0 in
01:00 68.5 °F 62.4 °F 30 in SW 1 mph 1 mph 81 % 0 in
01:10 68.5 °F 62.4 °F 30 in SW 1 mph 1 mph 81 % 0 in
01:20 68.7 °F 63 °F 30 in SSW 1 mph 1 mph 82 % 0 in
01:30 68.5 °F 62.8 °F 30 in Calm     82 % 0 in
01:40 68.4 °F 62.2 °F 30 in SSE 1 mph 1 mph 81 % 0 in
01:50 68.4 °F 62.2 °F 30 in Calm   1 mph 81 % 0 in
02:10 69.1 °F 63 °F 30 in NNE 1 mph 2 mph 81 % 0 in
02:20 69.4 °F 63.3 °F 30 in NE 1 mph 1 mph 81 % 0 in
02:30 69.6 °F 63.5 °F 30 in Calm     81 % 0 in
02:40 69.8 °F 63 °F 30 in NE 1 mph 2 mph 79 % 0 in
02:50 70.3 °F 63.9 °F 30 in Calm   2 mph 80 % 0 in
03:00 71.2 °F 64.4 °F 30 in SSE 1 mph 1 mph 79 % 0 in
03:10 70.5 °F 63.3 °F 30 in SE 1 mph 3 mph 78 % 0 in
03:20 71.4 °F 64.2 °F 30 in East 2 mph 3 mph 78 % 0 in
03:30 72.1 °F 64.6 °F 30 in ENE 2 mph 2 mph 77 % 0 in
03:40 73 °F 64.9 °F 30 in East 1 mph 2 mph 76 % 0 in
03:50 74.5 °F 66 °F 30 in SSW 1 mph 2 mph 75 % 0 in
04:00 75.4 °F 66.6 °F 30 in SW 2 mph 2 mph 74 % 0 in
04:10 76.1 °F 67.3 °F 30 in SW 1 mph 5 mph 74 % 0 in
04:20 76.5 °F 67.6 °F 30.1 in SW 2 mph 4 mph 74 % 0 in
04:30 77.5 °F 67.8 °F 30.1 in SW 3 mph 5 mph 72 % 0 in
04:40 77.4 °F 67.6 °F 30.1 in SW 3 mph 5 mph 72 % 0 in
04:50 77.7 °F 67.6 °F 30.1 in SW 2 mph 8 mph 71 % 0 in
05:00 78.6 °F 66.7 °F 30.1 in SSW 7 mph 7 mph 67 % 0 in
05:10 79.5 °F 67.3 °F 30.1 in SSW 5 mph 8 mph 66 % 0 in
05:20 80.4 °F 67.1 °F 30.1 in WSW 3 mph 6 mph 64 % 0 in
05:30 81.9 °F 67.1 °F 30.1 in West 3 mph 3 mph 61 % 0 in
05:40 81.9 °F 65.7 °F 30.1 in SW 5 mph 10 mph 58 % 0 in
05:50 82.4 °F 65.7 °F 30.1 in SW 3 mph 8 mph 57 % 0 in
10:56 83.3 °F 65.5 °F 30.1 in SSE 5.4 mph 5.6 mph 55 % 0 in
11:01 83.5 °F 64.6 °F 30.1 in SW 4.6 mph 4.6 mph 53 % 0 in
11:06 84.4 °F 64.8 °F 30.1 in WSW 10.2 mph 10.2 mph 52 % 0 in
11:11 84.2 °F 64.8 °F 30.1 in SW 9.2 mph 9.2 mph 52 % 0 in
11:16 84 °F 63.9 °F 30.1 in SSE 8.1 mph 8.1 mph 51 % 0 in
11:21 84.2 °F 63.5 °F 30.1 in SW 6.9 mph 6.9 mph 50 % 0 in
11:26 84.4 °F 63.7 °F 30.1 in SW 6.9 mph 6.9 mph 50 % 0 in
11:31 85.1 °F 64.4 °F 30 in WSW 4.6 mph 4.6 mph 50 % 0 in
11:36 85.8 °F 64.9 °F 30 in SW 6.2 mph 6.2 mph 50 % 0 in
11:41 84.9 °F 63.7 °F 30 in SW 9.2 mph 9.2 mph 49 % 0 in
11:46 85.8 °F 64.6 °F 30 in WSW 6.4 mph 6.4 mph 49 % 0 in
11:51 86.2 °F 64.8 °F 30 in SSW 6.9 mph 6.9 mph 49 % 0 in
11:56 86 °F 64 °F 30 in SW 8.1 mph 8.1 mph 48 % 0 in
12:01 86 °F 64 °F 30.1 in West 5.8 mph 5.8 mph 48 % 0 in
12:06 86.2 °F 63.7 °F 30.1 in WSW 10.2 mph 10.2 mph 47 % 0 in
12:11 86 °F 63.3 °F 30.1 in SW 8.1 mph 8.1 mph 47 % 0 in
12:16 87.1 °F 64.4 °F 30 in South 9.2 mph 9.2 mph 47 % 0 in
12:21 86.9 °F 63.7 °F 30 in West 9.2 mph 9.2 mph 46 % 0 in
12:26 86.7 °F 63.5 °F 30 in SW 6.9 mph 6.9 mph 46 % 0 in
12:31 87.4 °F 64 °F 30 in SSW 5.8 mph 5.8 mph 46 % 0 in
12:36 86.7 °F 62.8 °F 30 in SSW 11.5 mph 11.5 mph 45 % 0 in
12:41 88 °F 64 °F 30 in SW 5.8 mph 5.8 mph 45 % 0 in
12:46 88.5 °F 63.9 °F 30 in SW 5.8 mph 5.8 mph 44 % 0 in
12:51 89.1 °F 63.7 °F 30 in SSW 5.8 mph 5.8 mph 43 % 0 in
12:56 88.2 °F 62.2 °F 30 in South 9.2 mph 9.2 mph 42 % 0 in
13:01 88.2 °F 62.8 °F 30 in SW 9.2 mph 9.2 mph 43 % 0 in
13:06 90 °F 64.6 °F 30 in SW 5.8 mph 5.8 mph 43 % 0 in
13:11 89.4 °F 63.3 °F 30 in South 8.1 mph 8.1 mph 42 % 0 in
13:16 90 °F 63.9 °F 30 in SW 5.8 mph 5.8 mph 42 % 0 in
13:21 89.8 °F 63 °F 30 in WSW 8.1 mph 8.1 mph 41 % 0 in
13:26 88.7 °F 61.3 °F 30 in SW 6.9 mph 6.9 mph 40 % 0 in
13:31 89.6 °F 62.1 °F 30 in SSE 6.9 mph 6.9 mph 40 % 0 in
13:36 89.6 °F 62.1 °F 30 in SW 6.2 mph 6.2 mph 40 % 0 in
13:41 88.9 °F 61.3 °F 30 in ESE 9.2 mph 9.2 mph 40 % 0 in
13:46 89.2 °F 61.9 °F 30 in South 4.9 mph 4.9 mph 40 % 0 in
13:51 90.3 °F 62.8 °F 30 in SSW 8.1 mph 8.1 mph 40 % 0 in
13:56 89.4 °F 60.4 °F 30 in SSW 12.3 mph 12.3 mph 38 % 0 in
14:01 89.4 °F 60.4 °F 30 in SSW 10.9 mph 10.9 mph 38 % 0 in
14:06 89.6 °F 60.6 °F 30 in SW 8.1 mph 8.1 mph 38 % 0 in
14:11 90.7 °F 61.5 °F 30 in SW 5.8 mph 5.8 mph 38 % 0 in
14:16 90.9 °F 61.7 °F 30 in SW 5.8 mph 5.8 mph 38 % 0 in
14:21 89.4 °F 59.7 °F 30 in SW 11.5 mph 11.5 mph 37 % 0 in
14:26 90 °F 60.3 °F 30 in SW 9.2 mph 9.2 mph 37 % 0 in
14:31 89.8 °F 60.1 °F 30 in SSE 10.4 mph 10.4 mph 37 % 0 in
14:36 90.3 °F 60.4 °F 30 in SE 10.4 mph 10.4 mph 37 % 0 in
14:41 90.5 °F 61.3 °F 30 in SSW 11.5 mph 11.5 mph 38 % 0 in
14:46 91 °F 61.9 °F 30 in South 7.1 mph 7.1 mph 38 % 0 in
14:51 91 °F 61.2 °F 30 in SW 5.8 mph 5.8 mph 37 % 0 in
14:56 90.7 °F 60.8 °F 30 in SSW 8.1 mph 8.1 mph 37 % 0 in
15:01 90 °F 60.3 °F 30 in SSW 6.9 mph 6.9 mph 37 % 0 in
15:06 90.1 °F 60.4 °F 30 in SSW 8.1 mph 8.1 mph 37 % 0 in
15:11 89.8 °F 60.1 °F 30 in SW 6.9 mph 6.9 mph 37 % 0 in
15:16 90.1 °F 60.4 °F 30 in West 8.1 mph 8.1 mph 37 % 0 in
15:21 90.9 °F 61 °F 30 in South 11.5 mph 11.5 mph 37 % 0 in
15:26 90.3 °F 60.4 °F 30 in SSW 8.1 mph 8.1 mph 37 % 0 in
15:31 90.5 °F 60.6 °F 30 in SW 10.7 mph 10.7 mph 37 % 0 in
15:36 90.3 °F 59.7 °F 30 in South 12.7 mph 12.7 mph 36 % 0 in
15:41 90.7 °F 60.1 °F 30 in SSW 13 mph 13 mph 36 % 0 in
15:46 90 °F 58.6 °F 30 in SW 15 mph 15 mph 35 % 0 in
15:51 91 °F 59.5 °F 30 in WSW 6.9 mph 6.9 mph 35 % 0 in
15:56 90.9 °F 60.3 °F 30 in South 5.8 mph 5.8 mph 36 % 0 in
16:01 90.9 °F 59.4 °F 30 in SSE 9.2 mph 9.2 mph 35 % 0 in
16:06 90 °F 57.7 °F 30 in SW 10 mph 10 mph 34 % 0 in
16:11 89.8 °F 58.5 °F 30 in SW 10.4 mph 10.4 mph 35 % 0 in
16:16 90.3 °F 59 °F 30 in West 9.4 mph 9.4 mph 35 % 0 in
16:21 90.5 °F 59.9 °F 30 in SW 8.1 mph 8.1 mph 36 % 0 in
16:26 90.1 °F 58.8 °F 30 in SW 9.2 mph 9.2 mph 35 % 0 in
16:31 90 °F 57.7 °F 30 in SSW 13.8 mph 13.8 mph 34 % 0 in
16:36 90.3 °F 59 °F 30 in SSW 5.8 mph 5.8 mph 35 % 0 in
16:41 89.8 °F 57.7 °F 30 in SW 10.4 mph 10.4 mph 34 % 0 in
16:46 89.2 °F 57.9 °F 30 in SW 12.7 mph 12.7 mph 35 % 0 in
16:51 89.8 °F 57.7 °F 30 in SW 7.8 mph 7.8 mph 34 % 0 in
16:56 89.2 °F 57.9 °F 30 in SSW 10.4 mph 10.4 mph 35 % 0 in
17:01 89.2 °F 57.9 °F 30 in South 6.9 mph 6.9 mph 35 % 0 in
17:11 89.4 °F 58.3 °F 30 in SW 6.9 mph 6.9 mph 35 % 0 in
17:16 89.1 °F 57 °F 30 in WSW 11.5 mph 11.5 mph 34 % 0 in
17:21 89.1 °F 57.7 °F 30 in West 5.8 mph 5.8 mph 35 % 0 in
17:26 89.1 °F 57.7 °F 30 in SW 5.8 mph 5.8 mph 35 % 0 in
17:28 88.9 °F 57.7 °F 30 in SW 9.2 mph 9.2 mph 35 % 0 in
17:33 89.1 °F 57.7 °F 30 in South 5.8 mph 5.8 mph 35 % 0 in
17:38 88.7 °F 57.6 °F 30 in SSW 9.2 mph 9.2 mph 35 % 0 in
17:43 88.3 °F 56.5 °F 30 in SW 12.5 mph 12.5 mph 34 % 0 in
17:48 88.7 °F 56.7 °F 30 in SW 9.7 mph 9.7 mph 34 % 0 in
17:53 88.3 °F 57.2 °F 30 in SSW 8.1 mph 8.1 mph 35 % 0 in
17:58 88.7 °F 57.6 °F 30 in SW 8.1 mph 8.1 mph 35 % 0 in
18:03 88 °F 56.8 °F 30 in SSW 9.2 mph 9.2 mph 35 % 0 in
18:08 88.5 °F 57.4 °F 30 in SW 8.1 mph 8.1 mph 35 % 0 in
18:13 88.5 °F 57.4 °F 30 in SSW 9.4 mph 9.4 mph 35 % 0 in
18:18 88 °F 56.8 °F 30 in SSW 11.5 mph 11.5 mph 35 % 0 in
18:23 87.6 °F 57.4 °F 30 in WSW 8.1 mph 8.1 mph 36 % 0 in
18:24 87.6 °F 57.4 °F 30 in WSW 8.1 mph 8.1 mph 36 % 0 in
18:29 87.4 °F 57.2 °F 30 in SW 5.8 mph 5.8 mph 36 % 0 in
18:34 87.3 °F 57 °F 30 in SSW 5.8 mph 5.8 mph 36 % 0 in
18:39 87.3 °F 57.7 °F 30 in SSW 7.6 mph 7.6 mph 37 % 0 in
18:44 86.9 °F 57.6 °F 30 in SW 3.5 mph 5.4 mph 37 % 0 in
18:49 86.9 °F 57.6 °F 30 in SSW 8.1 mph 8.1 mph 37 % 0 in
18:54 86.5 °F 57.2 °F 30 in SSW 10.4 mph 10.4 mph 37 % 0 in
18:59 86.4 °F 57 °F 30 in SSW 7.1 mph 7.1 mph 37 % 0 in
19:04 86 °F 56.7 °F 30 in WSW 10.5 mph 10.5 mph 37 % 0 in
19:09 85.3 °F 56.1 °F 30 in SW 9.2 mph 9.2 mph 37 % 0 in
19:14 85.3 °F 56.1 °F 30 in SW 10.4 mph 10.4 mph 37 % 0 in
19:19 84.7 °F 55.6 °F 30 in SW 10.4 mph 10.4 mph 37 % 0 in
19:20 73.9 °F 58.6 °F 30 in WSW 2 mph 3 mph 59 % 0 in
19:24 84.4 °F 55.2 °F 30 in SW 8.1 mph 8.1 mph 37 % 0 in
19:29 84.2 °F 55 °F 30 in WSW 7.1 mph 7.1 mph 37 % 0 in
19:30 73.8 °F 59 °F 30 in SW 3 mph 4 mph 60 % 0 in
19:34 83.8 °F 56.1 °F 30 in West 11.5 mph 11.5 mph 39 % 0 in
19:39 83.7 °F 56.1 °F 30 in SW 8.1 mph 8.1 mph 39 % 0 in
19:40 73.6 °F 59.4 °F 30 in SW 3 mph 3 mph 61 % 0 in
19:44 83.5 °F 55.9 °F 30 in SSW 5.8 mph 5.8 mph 39 % 0 in
19:49 83.3 °F 55.8 °F 30 in SW 10.4 mph 10.4 mph 39 % 0 in
19:50 73.4 °F 59.2 °F 30 in SW 3 mph 3 mph 61 % 0 in
19:54 83.3 °F 55.8 °F 30 in SSW 4.6 mph 4.6 mph 39 % 0 in
19:59 83.1 °F 55.6 °F 30 in WSW 5.8 mph 6.2 mph 39 % 0 in
20:00 73.2 °F 59.4 °F 30 in WSW 2 mph 3 mph 62 % 0 in
20:04 82.8 °F 55.2 °F 30 in South 12.7 mph 12.7 mph 39 % 0 in
20:09 82.6 °F 55 °F 30 in WSW 8.1 mph 8.1 mph 39 % 0 in
20:10 73 °F 59.7 °F 30 in WSW 2 mph 3 mph 63 % 0 in
20:14 82.2 °F 54.9 °F 30 in SSE 8.5 mph 8.5 mph 39 % 0 in
20:19 82 °F 55.2 °F 30 in SW 6.9 mph 6.9 mph 40 % 0 in
20:20 72.9 °F 59.5 °F 30 in WSW 2 mph 2 mph 63 % 0 in
20:24 82 °F 55.2 °F 30 in WSW 6.9 mph 6.9 mph 40 % 0 in
20:29 81.9 °F 55.2 °F 30 in WSW 3.5 mph 3.6 mph 40 % 0 in
20:30 72.7 °F 59.7 °F 30 in WSW 2 mph 2 mph 64 % 0 in
20:34 81.7 °F 55 °F 30 in SW 4.6 mph 4.6 mph 40 % 0 in
20:39 81.5 °F 54.9 °F 30 in SW 5.8 mph 5.8 mph 40 % 0 in
20:44 81.3 °F 54.7 °F 30 in WSW 3.1 mph 3.1 mph 40 % 0 in
20:45 72.5 °F 60.1 °F 30 in SW 2 mph 4 mph 65 % 0 in
20:49 81.1 °F 54.5 °F 30 in WSW 4.7 mph 4.7 mph 40 % 0 in
20:54 80.8 °F 54.1 °F 30 in SW 4.6 mph 4.6 mph 40 % 0 in
20:55 72.3 °F 59.9 °F 30 in WSW 2 mph 3 mph 65 % 0 in
20:59 80.6 °F 54.7 °F 30 in West 5.8 mph 5.8 mph 41 % 0 in
21:04 80.4 °F 55.2 °F 30 in SW 5.8 mph 5.8 mph 42 % 0 in
21:05 72.3 °F 60.3 °F 30 in WSW 1 mph 3 mph 66 % 0 in
21:09 80.1 °F 54.9 °F 30 in SW 4.6 mph 4.6 mph 42 % 0 in
21:14 79.9 °F 55.4 °F 30 in SW 4.6 mph 4.6 mph 43 % 0 in
21:15 72.1 °F 60.3 °F 30 in WSW 2 mph 4 mph 66 % 0 in
21:19 79.7 °F 55.2 °F 30 in South 8.1 mph 8.1 mph 43 % 0 in
21:24 79.3 °F 54.9 °F 30 in SW 5.8 mph 5.8 mph 43 % 0 in
21:25 72.1 °F 60.6 °F 30 in WSW 2 mph 3 mph 67 % 0 in
21:29 79.2 °F 55.4 °F 29.9 in SW 5.8 mph 5.8 mph 44 % 0 in
21:34 79 °F 55.2 °F 29.9 in SW 3.5 mph 3.5 mph 44 % 0 in
21:35 72 °F 60.4 °F 30 in WSW 1 mph 3 mph 67 % 0 in
21:39 78.8 °F 55.8 °F 29.9 in WSW 6.9 mph 6.9 mph 45 % 0 in
21:44 78.6 °F 55.6 °F 30 in SSW 4.7 mph 4.7 mph 45 % 0 in
21:45 71.8 °F 60.3 °F 30 in West 2 mph 3 mph 67 % 0 in
21:49 78.4 °F 55.2 °F 30 in SSW 2.3 mph 2.3 mph 45 % 0 in
21:54 78.3 °F 55.8 °F 30 in SW 4.6 mph 4.6 mph 46 % 0 in
21:59 78.1 °F 55.6 °F 30 in SW 4.6 mph 4.6 mph 46 % 0 in
22:04 77.9 °F 55.6 °F 30 in SW 3.5 mph 3.5 mph 46 % 0 in
22:05 71.2 °F 60.4 °F 30 in WSW 2 mph 3 mph 69 % 0 in
22:09 77.7 °F 55.9 °F 30 in SW 4.6 mph 4.6 mph 47 % 0 in
22:10 71.1 °F 60.4 °F 30 in WSW 2 mph 3 mph 69 % 0 in
22:14 77.5 °F 55.8 °F 30 in SW 4.6 mph 4.6 mph 47 % 0 in
22:15 71.1 °F 60.4 °F 30 in SW 2 mph 3 mph 69 % 0 in
22:19 77.4 °F 56.1 °F 30 in WSW 3.6 mph 3.6 mph 48 % 0 in
22:24 77.2 °F 55.9 °F 30 in SSW 8.1 mph 8.1 mph 48 % 0 in
22:25 70.9 °F 59.7 °F 30 in SW 2 mph 2 mph 68 % 0 in
22:29 77 °F 56.5 °F 30 in WSW 3.5 mph 3.5 mph 49 % 0 in
22:34 76.8 °F 56.8 °F 30 in West 6.9 mph 6.9 mph 50 % 0 in
22:35 70.7 °F 59.5 °F 30 in SW 2 mph 3 mph 68 % 0 in
22:39 76.8 °F 57.4 °F 30 in West 3.5 mph 3.5 mph 51 % 0 in
22:44 76.6 °F 57.2 °F 30 in WSW 2.4 mph 2.4 mph 51 % 0 in
22:45 70.7 °F 59.2 °F 30 in WSW 1 mph 3 mph 67 % 0 in
22:49 76.6 °F 57.2 °F 30 in SSW 2.3 mph 2.3 mph 51 % 0 in
22:54 76.5 °F 57.6 °F 30 in West 2.3 mph 2.3 mph 52 % 0 in
22:55 70.9 °F 59 °F 29.9 in WSW 2 mph 2 mph 66 % 0 in
22:59 76.3 °F 57.4 °F 30 in SW 3.5 mph 3.5 mph 52 % 0 in
23:04 76.1 °F 57.2 °F 30 in SSW 3.5 mph 3.5 mph 52 % 0 in
23:05 70.9 °F 58.5 °F 29.9 in WSW 2 mph 4 mph 65 % 0 in
23:09 75.9 °F 57.6 °F 30 in WSW 5.8 mph 5.8 mph 53 % 0 in
23:14 75.7 °F 57.4 °F 30 in SW 4 mph 4 mph 53 % 0 in
23:15 70.9 °F 58.1 °F 29.9 in WSW 2 mph 3 mph 64 % 0 in
23:19 75.7 °F 57.9 °F 30 in SW 3.6 mph 3.6 mph 54 % 0 in
23:24 75.4 °F 57.6 °F 30 in SW 4.6 mph 4.6 mph 54 % 0 in
23:25 71.1 °F 57.7 °F 29.9 in WSW 3 mph 3 mph 63 % 0 in
23:29 75.4 °F 58.1 °F 30 in West 3.5 mph 3.5 mph 55 % 0 in
23:34 75.2 °F 57.9 °F 30 in SW 3.5 mph 3.5 mph 55 % 0 in
23:35 71.2 °F 57.6 °F 29.9 in WSW 2 mph 3 mph 62 % 0 in
23:39 75 °F 58.3 °F 30 in SW 1.6 mph 2.4 mph 56 % 0 in
23:44 74.8 °F 58.6 °F 30 in WSW 2.4 mph 2.4 mph 57 % 0 in
23:45 71.4 °F 57.4 °F 29.9 in West 3 mph 3 mph 61 % 0 in
23:49 74.8 °F 58.6 °F 30 in WSW 3.5 mph 3.5 mph 57 % 0 in
23:54 74.7 °F 58.8 °F 30 in SW 3.5 mph 3.5 mph 58 % 0 in
23:55 71.6 °F 57 °F 29.9 in West 2 mph 4 mph 60 % 0 in
23:59 74.5 °F 58.6 °F 30 in WSW 4.6 mph 4.6 mph 58 % 0 in
Meteo Sesrovires
Elogis d' Weather Underground - 3.75 mb

Guio original per  Jim McMurry - jmcmurry@mwt.net Adaptat per a la plantilla per  Wim van der Kuil - Leuven-Template.eu

Trobareu la nostra informacio del temps tambe a:

Weather Underground

AWEKAS